createdAt,value
2022-08-30T00:01:29.135Z,3.63
2022-08-30T00:06:27.073Z,3.30
2022-08-30T00:08:55.705Z,3.17
2022-08-30T00:11:26.060Z,3.85
2022-08-30T00:13:55.416Z,3.75
2022-08-30T00:16:23.347Z,3.83
2022-08-30T00:18:52.026Z,3.10
2022-08-30T00:21:19.421Z,3.38
2022-08-30T00:23:46.678Z,2.92
2022-08-30T00:26:13.962Z,3.53
2022-08-30T00:28:41.259Z,3.20
2022-08-30T00:31:08.665Z,3.42
2022-08-30T00:33:36.236Z,3.40
2022-08-30T00:36:03.581Z,2.90
2022-08-30T00:38:30.885Z,3.58
2022-08-30T00:40:59.881Z,3.38
2022-08-30T00:43:30.420Z,3.15
2022-08-30T00:45:58.187Z,3.58
2022-08-30T00:48:25.915Z,4.03
2022-08-30T00:50:56.460Z,3.20
2022-08-30T00:53:27.384Z,3.17
2022-08-30T00:55:55.329Z,3.47
2022-08-30T00:58:26.172Z,3.35
2022-08-30T01:00:55.403Z,3.47
2022-08-30T01:03:23.093Z,3.58
2022-08-30T01:05:51.657Z,3.25
2022-08-30T01:08:22.186Z,3.53
2022-08-30T01:10:50.747Z,3.50
2022-08-30T01:13:18.188Z,3.67
2022-08-30T01:15:46.272Z,3.28
2022-08-30T01:18:17.219Z,3.83
2022-08-30T01:21:04.815Z,3.30
2022-08-30T01:23:32.517Z,3.67
2022-08-30T01:26:00.698Z,3.22
2022-08-30T01:28:28.588Z,3.45
2022-08-30T01:30:56.206Z,3.45
2022-08-30T01:33:24.916Z,3.50
2022-08-30T01:35:58.358Z,3.50
2022-08-30T01:38:32.663Z,3.80
2022-08-30T01:41:19.896Z,2.95
2022-08-30T01:43:47.784Z,3.97
2022-08-30T01:46:16.998Z,4.00
2022-08-30T01:48:50.221Z,3.80
2022-08-30T01:51:21.969Z,3.75
2022-08-30T01:53:49.346Z,3.47
2022-08-30T01:56:16.689Z,3.60
2022-08-30T01:58:44.227Z,3.88
2022-08-30T02:01:13.975Z,4.00
2022-08-30T02:03:43.367Z,3.70
2022-08-30T02:06:14.339Z,3.63
2022-08-30T02:08:42.227Z,3.97
2022-08-30T02:11:09.775Z,3.63
2022-08-30T02:13:37.869Z,3.83
2022-08-30T02:16:07.665Z,4.05
2022-08-30T02:18:36.844Z,3.72
2022-08-30T02:21:04.260Z,3.70
2022-08-30T02:23:31.815Z,4.15
2022-08-30T02:25:59.561Z,3.60
2022-08-30T02:28:26.950Z,3.80
2022-08-30T02:30:54.293Z,3.70
2022-08-30T02:33:21.859Z,3.83
2022-08-30T02:35:49.141Z,3.53
2022-08-30T02:38:16.425Z,3.95
2022-08-30T02:40:47.504Z,3.50
2022-08-30T02:43:15.130Z,3.70
2022-08-30T02:45:42.655Z,3.70
2022-08-30T02:48:10.179Z,3.63
2022-08-30T02:50:45.529Z,3.58
2022-08-30T02:53:16.215Z,3.80
2022-08-30T02:55:44.244Z,4.70
2022-08-30T02:58:11.983Z,3.90
2022-08-30T03:00:41.307Z,5.15
2022-08-30T03:03:09.918Z,4.03
2022-08-30T03:05:39.706Z,4.75
2022-08-30T03:08:08.308Z,4.10
2022-08-30T03:10:36.257Z,4.38
2022-08-30T03:13:05.303Z,4.18
2022-08-30T03:15:32.585Z,5.65
2022-08-30T03:17:59.907Z,5.18
2022-08-30T03:20:28.542Z,5.00
2022-08-30T03:22:55.887Z,5.03
2022-08-30T03:25:23.523Z,5.05
2022-08-30T03:27:50.862Z,5.15
2022-08-30T03:30:19.679Z,5.53
2022-08-30T03:32:47.248Z,5.32
2022-08-30T03:35:16.259Z,5.00
2022-08-30T03:37:43.897Z,5.13
2022-08-30T03:40:12.993Z,5.65
2022-08-30T03:42:41.397Z,4.70
2022-08-30T03:45:12.604Z,5.47
2022-08-30T03:47:41.050Z,4.78
2022-08-30T03:50:10.364Z,4.28
2022-08-30T03:52:37.703Z,4.80
2022-08-30T03:55:06.180Z,4.55
2022-08-30T03:57:33.864Z,4.88
2022-08-30T04:00:05.177Z,4.75
2022-08-30T04:02:39.145Z,4.40
2022-08-30T04:05:07.374Z,4.75
2022-08-30T04:07:34.677Z,4.32
2022-08-30T04:10:03.991Z,4.80
2022-08-30T04:12:31.337Z,5.20
2022-08-30T04:14:58.942Z,4.88
2022-08-30T04:17:26.240Z,5.60
2022-08-30T04:19:53.661Z,4.85
2022-08-30T04:22:21.987Z,4.72
2022-08-30T04:24:49.539Z,4.50
2022-08-30T04:27:20.555Z,4.50
2022-08-30T04:29:48.157Z,4.63
2022-08-30T04:32:16.639Z,5.20
2022-08-30T04:34:43.980Z,4.53
2022-08-30T04:37:11.646Z,4.90
2022-08-30T04:39:39.540Z,4.57
2022-08-30T04:42:06.999Z,4.70
2022-08-30T04:44:34.868Z,5.25
2022-08-30T04:47:02.450Z,4.40
2022-08-30T04:49:32.389Z,5.10
2022-08-30T04:51:59.831Z,4.68
2022-08-30T04:54:27.179Z,5.10
2022-08-30T04:56:54.634Z,4.43
2022-08-30T04:59:22.135Z,5.30
2022-08-30T05:01:49.526Z,4.85
2022-08-30T05:04:16.813Z,5.07
2022-08-30T05:06:44.450Z,5.22
2022-08-30T05:09:11.992Z,4.45
2022-08-30T05:11:39.440Z,5.72
2022-08-30T05:14:07.996Z,4.50
2022-08-30T05:16:35.588Z,4.80
2022-08-30T05:19:02.902Z,4.88
2022-08-30T05:21:30.198Z,4.78
2022-08-30T05:24:00.108Z,5.03
2022-08-30T05:26:30.245Z,5.15
2022-08-30T05:31:31.277Z,5.15
2022-08-30T05:33:59.252Z,6.00
2022-08-30T05:36:30.244Z,5.60
2022-08-30T05:38:57.877Z,5.10
2022-08-30T05:41:26.420Z,5.03
2022-08-30T05:43:55.502Z,4.82
2022-08-30T05:46:22.950Z,5.13
2022-08-30T05:48:51.251Z,5.50
2022-08-30T05:51:23.784Z,5.15
2022-08-30T05:53:53.160Z,4.90
2022-08-30T05:56:24.830Z,5.57
2022-08-30T05:58:53.755Z,4.60
2022-08-30T06:03:53.653Z,4.75
2022-08-30T06:06:21.658Z,4.78
2022-08-30T06:08:49.552Z,5.15
2022-08-30T06:11:19.618Z,5.10
2022-08-30T06:13:47.689Z,5.10
2022-08-30T06:16:17.803Z,6.22
2022-08-30T06:21:22.162Z,6.07
2022-08-30T06:23:49.628Z,5.97
2022-08-30T06:26:16.956Z,5.70
2022-08-30T06:28:44.592Z,5.55
2022-08-30T06:31:14.437Z,5.70
2022-08-30T06:33:42.479Z,5.57
2022-08-30T06:36:12.722Z,5.70
2022-08-30T06:41:08.500Z,5.03
2022-08-30T06:43:35.933Z,5.80
2022-08-30T06:46:05.285Z,5.28
2022-08-30T06:48:32.875Z,5.63
2022-08-30T06:51:00.171Z,5.93
2022-08-30T06:53:29.670Z,5.60
2022-08-30T06:56:05.501Z,6.38
2022-08-30T06:58:33.402Z,7.40
2022-08-30T07:01:01.071Z,6.07
2022-08-30T07:03:28.559Z,6.15
2022-08-30T07:05:56.911Z,6.47
2022-08-30T07:08:24.836Z,5.47
2022-08-30T07:10:54.628Z,5.05
2022-08-30T07:13:24.438Z,5.30
2022-08-30T07:15:52.327Z,5.15
2022-08-30T07:18:38.735Z,6.22
2022-08-30T07:21:11.651Z,6.40
2022-08-30T07:23:39.098Z,5.20
2022-08-30T07:26:08.575Z,5.18
2022-08-30T07:28:41.331Z,6.63
2022-08-30T07:31:09.897Z,6.70
2022-08-30T07:33:38.085Z,6.38
2022-08-30T07:36:06.180Z,6.18
2022-08-30T07:38:33.882Z,5.97
2022-08-30T07:41:01.368Z,6.70
2022-08-30T07:43:29.381Z,6.43
2022-08-30T07:46:04.335Z,6.53
2022-08-30T07:48:31.957Z,6.93
2022-08-30T07:51:05.163Z,7.18
2022-08-30T07:53:32.810Z,6.75
2022-08-30T07:56:00.860Z,7.47
2022-08-30T07:58:34.138Z,6.75
2022-08-30T08:01:02.053Z,6.30
2022-08-30T08:03:29.931Z,6.57
2022-08-30T08:05:57.795Z,6.60
2022-08-30T08:08:26.230Z,7.05
2022-08-30T08:10:53.477Z,7.10
2022-08-30T08:13:20.984Z,6.65
2022-08-30T08:15:48.596Z,6.95
2022-08-30T08:18:16.102Z,7.13
2022-08-30T08:20:43.596Z,6.90
2022-08-30T08:23:10.811Z,7.55
2022-08-30T08:25:40.028Z,6.13
2022-08-30T08:28:08.176Z,7.50
2022-08-30T08:30:36.741Z,6.45
2022-08-30T08:33:05.333Z,6.47
2022-08-30T08:35:33.260Z,7.13
2022-08-30T08:38:00.958Z,7.57
2022-08-30T08:40:29.565Z,6.40
2022-08-30T08:43:02.497Z,6.43
2022-08-30T08:45:35.742Z,6.25
2022-08-30T08:48:22.639Z,6.10
2022-08-30T08:51:08.630Z,6.32
2022-08-30T08:53:46.277Z,6.88
2022-08-30T08:56:17.195Z,6.43
2022-08-30T09:01:18.543Z,7.07
2022-08-30T09:03:47.472Z,7.35
2022-08-30T09:06:51.411Z,7.00
2022-08-30T09:09:22.325Z,11.80
2022-08-30T09:11:49.920Z,10.10
2022-08-30T09:14:20.660Z,7.10
2022-08-30T09:17:09.392Z,6.63
2022-08-30T09:20:07.978Z,6.97
2022-08-30T09:22:40.377Z,8.02
2022-08-30T09:25:17.076Z,6.80
2022-08-30T09:27:46.475Z,6.10
2022-08-30T09:30:21.482Z,7.25
2022-08-30T09:33:01.178Z,6.35
2022-08-30T09:35:43.264Z,6.70
2022-08-30T09:41:03.126Z,11.57
2022-08-30T09:43:32.613Z,6.75
2022-08-30T09:46:02.451Z,6.65
2022-08-30T09:48:37.816Z,5.65
2022-08-30T09:51:11.544Z,6.32
2022-08-30T09:53:40.707Z,6.00
2022-08-30T09:56:34.178Z,6.63
2022-08-30T09:59:26.338Z,6.90
2022-08-30T10:02:06.225Z,6.30
2022-08-30T10:04:52.013Z,5.53
2022-08-30T10:07:37.534Z,7.43
2022-08-30T10:10:22.649Z,6.07
2022-08-30T10:13:11.087Z,7.20
2022-08-30T10:15:50.253Z,6.45
2022-08-30T10:18:32.796Z,15.03
2022-08-30T10:21:27.225Z,7.75
2022-08-30T10:24:04.481Z,6.82
2022-08-30T10:26:54.516Z,6.35
2022-08-30T10:34:31.547Z,7.32
2022-08-30T10:37:07.714Z,7.25
2022-08-30T10:39:46.795Z,6.53
2022-08-30T10:42:21.633Z,7.57
2022-08-30T10:45:13.540Z,6.85
2022-08-30T10:47:49.557Z,7.43
2022-08-30T10:50:33.857Z,7.20
2022-08-30T10:53:06.384Z,9.38
2022-08-30T10:55:37.038Z,8.98
2022-08-30T10:58:05.957Z,9.75
2022-08-30T11:01:16.581Z,7.00
2022-08-30T11:04:14.263Z,7.10
2022-08-30T11:07:10.176Z,6.28
2022-08-30T11:09:40.599Z,6.53
2022-08-30T11:12:22.134Z,6.25
2022-08-30T11:14:49.491Z,7.10
2022-08-30T11:17:45.626Z,8.20
2022-08-30T11:20:50.362Z,6.82
2022-08-30T11:23:36.134Z,7.30
2022-08-30T11:26:12.147Z,6.40
2022-08-30T11:28:48.383Z,7.13
2022-08-30T11:31:18.913Z,6.70
2022-08-30T11:33:53.622Z,6.20
2022-08-30T11:36:37.697Z,6.80
2022-08-30T11:39:07.748Z,7.07
2022-08-30T11:41:41.925Z,5.97
2022-08-30T11:44:23.045Z,6.00
2022-08-30T11:46:54.864Z,6.22
2022-08-30T11:49:23.455Z,7.10
2022-08-30T11:52:28.051Z,6.00
2022-08-30T11:55:36.605Z,7.25
2022-08-30T11:58:17.174Z,7.78
2022-08-30T12:00:52.582Z,7.50
2022-08-30T12:03:21.931Z,6.05
2022-08-30T12:05:53.253Z,8.55
2022-08-30T12:08:20.565Z,6.28
2022-08-30T12:10:51.300Z,8.93
2022-08-30T12:13:37.181Z,7.18
2022-08-30T12:16:19.971Z,5.65
2022-08-30T12:18:48.605Z,6.40
2022-08-30T12:21:21.984Z,5.60
2022-08-30T12:23:53.827Z,6.22
2022-08-30T12:26:25.117Z,6.18
2022-08-30T12:29:34.757Z,6.20
2022-08-30T12:32:13.492Z,5.88
2022-08-30T12:34:40.698Z,5.28
2022-08-30T12:37:23.347Z,5.78
2022-08-30T12:40:12.091Z,6.03
2022-08-30T12:42:51.188Z,6.10
2022-08-30T12:45:20.958Z,6.60
2022-08-30T12:47:52.690Z,6.25
2022-08-30T12:50:26.885Z,9.07
2022-08-30T12:53:01.637Z,6.55
2022-08-30T12:55:33.778Z,6.15
2022-08-30T12:58:05.047Z,6.55
2022-08-30T13:00:36.543Z,5.45
2022-08-30T13:03:33.585Z,5.50
2022-08-30T13:06:02.738Z,7.63
2022-08-30T13:08:39.462Z,7.60
2022-08-30T13:11:29.659Z,6.50
2022-08-30T13:14:25.025Z,6.70
2022-08-30T13:17:20.295Z,6.07
2022-08-30T13:20:17.208Z,5.05
2022-08-30T13:23:01.779Z,6.05
2022-08-30T13:25:30.893Z,5.95
2022-08-30T13:28:01.574Z,6.03
2022-08-30T13:30:29.584Z,5.78
2022-08-30T13:32:56.957Z,5.78
2022-08-30T13:35:25.008Z,5.85
2022-08-30T13:37:54.471Z,5.70
2022-08-30T13:40:22.852Z,5.70
2022-08-30T13:42:50.336Z,4.72
2022-08-30T13:48:06.651Z,5.53
2022-08-30T13:50:33.868Z,5.05
2022-08-30T13:53:01.248Z,5.32
2022-08-30T13:55:28.642Z,4.82
2022-08-30T13:57:57.257Z,5.70
2022-08-30T14:00:25.867Z,5.00
2022-08-30T14:02:57.770Z,4.97
2022-08-30T14:06:15.858Z,5.63
2022-08-30T14:08:46.237Z,4.80
2022-08-30T14:11:20.827Z,4.80
2022-08-30T14:16:39.476Z,5.05
2022-08-30T14:21:35.734Z,5.32
2022-08-30T14:24:05.319Z,4.80
2022-08-30T14:26:45.764Z,4.93
2022-08-30T14:29:16.441Z,4.35
2022-08-30T14:31:43.981Z,5.03
2022-08-30T14:34:12.208Z,4.68
2022-08-30T14:36:41.814Z,4.10
2022-08-30T14:39:11.891Z,4.70
2022-08-30T14:41:45.337Z,4.55
2022-08-30T14:44:13.891Z,4.70
2022-08-30T14:46:42.025Z,4.40
2022-08-30T14:49:11.197Z,3.97
2022-08-30T14:51:39.171Z,4.47
2022-08-30T14:54:06.958Z,4.50
2022-08-30T14:56:36.906Z,4.40
2022-08-30T14:59:04.138Z,4.30
2022-08-30T15:01:32.157Z,4.38
2022-08-30T15:04:07.227Z,4.13
2022-08-30T15:06:36.482Z,4.18
2022-08-30T15:09:05.961Z,4.30
2022-08-30T15:11:33.968Z,4.20
2022-08-30T15:14:01.801Z,4.35
2022-08-30T15:16:32.101Z,4.78
2022-08-30T15:21:39.995Z,4.63
2022-08-30T15:24:09.744Z,4.55
2022-08-30T15:26:44.273Z,4.00
2022-08-30T15:29:13.761Z,4.05
2022-08-30T15:31:41.992Z,4.45
2022-08-30T15:34:11.600Z,4.65
2022-08-30T15:36:39.604Z,3.95
2022-08-30T15:39:09.796Z,4.53
2022-08-30T15:41:37.776Z,3.88
2022-08-30T15:46:38.078Z,3.95
2022-08-30T15:49:12.338Z,3.95
2022-08-30T15:51:41.888Z,4.40
2022-08-30T15:54:16.487Z,4.45
2022-08-30T15:56:44.214Z,4.03
2022-08-30T15:59:15.234Z,3.92
2022-08-30T16:01:45.033Z,4.25
2022-08-30T16:04:18.321Z,4.40
2022-08-30T16:06:46.512Z,3.97
2022-08-30T16:09:14.025Z,4.32
2022-08-30T16:11:41.881Z,4.80
2022-08-30T16:14:09.989Z,4.05
2022-08-30T16:16:39.994Z,4.45
2022-08-30T16:19:09.453Z,4.35
2022-08-30T16:21:37.849Z,4.43
2022-08-30T16:24:06.849Z,4.15
2022-08-30T16:26:35.187Z,4.32
2022-08-30T16:29:04.452Z,4.55
2022-08-30T16:31:34.915Z,4.13
2022-08-30T16:34:04.389Z,4.25
2022-08-30T16:36:33.144Z,4.03
2022-08-30T16:39:00.908Z,4.03
2022-08-30T16:41:28.638Z,4.18
2022-08-30T16:43:56.470Z,4.00
2022-08-30T16:46:28.130Z,4.20
2022-08-30T16:48:57.570Z,3.90
2022-08-30T16:51:27.508Z,4.30
2022-08-30T16:56:25.134Z,4.40
2022-08-30T16:59:01.367Z,4.07
2022-08-30T17:01:37.632Z,4.18
2022-08-30T17:04:06.608Z,3.70
2022-08-30T17:06:35.737Z,4.10
2022-08-30T17:09:05.076Z,4.40
2022-08-30T17:11:33.174Z,5.00
2022-08-30T17:16:48.046Z,4.03
2022-08-30T17:19:15.421Z,3.72
2022-08-30T17:21:43.740Z,4.32
2022-08-30T17:24:12.754Z,4.77
2022-08-30T17:26:40.198Z,4.30
2022-08-30T17:29:07.974Z,4.40
2022-08-30T17:31:35.923Z,5.18
2022-08-30T17:34:05.765Z,4.65
2022-08-30T17:36:35.629Z,4.32
2022-08-30T17:39:10.538Z,4.60
2022-08-30T17:41:45.345Z,4.03
2022-08-30T17:44:18.850Z,4.55
2022-08-30T17:46:46.230Z,3.95
2022-08-30T17:49:13.695Z,4.47
2022-08-30T17:51:44.200Z,4.50
2022-08-30T17:54:13.034Z,3.50
2022-08-30T17:56:41.740Z,4.32
2022-08-30T17:59:13.214Z,4.15
2022-08-30T18:01:44.161Z,4.45
2022-08-30T18:04:12.766Z,4.18
2022-08-30T18:06:40.246Z,4.30
2022-08-30T18:09:08.568Z,4.15
2022-08-30T18:11:41.675Z,3.97
2022-08-30T18:14:11.362Z,4.35
2022-08-30T18:16:49.982Z,4.35
2022-08-30T18:19:28.990Z,5.05
2022-08-30T18:21:56.426Z,4.97
2022-08-30T18:24:24.246Z,4.43
2022-08-30T18:26:52.778Z,4.70
2022-08-30T18:29:29.487Z,4.40
2022-08-30T18:32:02.879Z,4.60
2022-08-30T18:34:30.552Z,3.60
2022-08-30T18:36:57.843Z,4.25
2022-08-30T18:39:25.955Z,4.10
2022-08-30T18:41:54.628Z,4.25
2022-08-30T18:44:28.217Z,4.82
2022-08-30T18:47:00.199Z,4.68
2022-08-30T18:49:32.554Z,4.25
2022-08-30T18:52:01.913Z,4.68
2022-08-30T18:54:30.742Z,4.45
2022-08-30T18:56:58.254Z,4.45
2022-08-30T18:59:35.333Z,4.63
2022-08-30T19:02:06.666Z,5.00
2022-08-30T19:04:35.796Z,4.57
2022-08-30T19:07:06.465Z,5.50
2022-08-30T19:09:34.160Z,4.57
2022-08-30T19:12:01.569Z,4.85
2022-08-30T19:14:28.867Z,4.60
2022-08-30T19:16:57.308Z,4.25
2022-08-30T19:19:24.566Z,4.53
2022-08-30T19:21:52.264Z,4.38
2022-08-30T19:24:20.175Z,4.13
2022-08-30T19:26:48.883Z,4.22
2022-08-30T19:29:16.390Z,4.28
2022-08-30T19:31:43.815Z,4.28
2022-08-30T19:34:11.879Z,3.92
2022-08-30T19:36:39.873Z,4.40
2022-08-30T19:39:07.216Z,4.30
2022-08-30T19:41:34.742Z,4.70
2022-08-30T19:44:03.623Z,4.10
2022-08-30T19:46:32.503Z,4.95
2022-08-30T19:49:01.204Z,4.55
2022-08-30T19:51:28.880Z,5.78
2022-08-30T19:53:59.149Z,5.35
2022-08-30T19:56:26.567Z,4.90
2022-08-30T19:58:53.952Z,5.10
2022-08-30T20:01:32.357Z,5.13
2022-08-30T20:04:02.188Z,4.75
2022-08-30T20:06:31.217Z,6.38
2022-08-30T20:09:00.275Z,4.78
2022-08-30T20:11:28.264Z,6.30
2022-08-30T20:13:55.640Z,5.10
2022-08-30T20:16:36.427Z,4.72
2022-08-30T20:19:08.584Z,4.57
2022-08-30T20:21:36.778Z,4.78
2022-08-30T20:24:05.079Z,4.72
2022-08-30T20:24:23.415Z,4.57
2022-08-30T20:26:38.594Z,4.13
2022-08-30T20:29:07.376Z,4.32
2022-08-30T20:31:35.624Z,4.30
2022-08-30T20:34:04.163Z,4.70
2022-08-30T20:36:32.465Z,4.78
2022-08-30T20:39:01.377Z,4.40
2022-08-30T20:41:30.621Z,4.88
2022-08-30T20:43:58.327Z,5.05
2022-08-30T20:46:27.034Z,4.80
2022-08-30T20:48:56.854Z,5.30
2022-08-30T20:51:24.165Z,5.38
2022-08-30T20:53:51.662Z,5.72
2022-08-30T20:56:21.724Z,5.47
2022-08-30T21:01:17.240Z,5.57
2022-08-30T21:03:47.583Z,6.38
2022-08-30T21:06:16.613Z,5.40
2022-08-30T21:08:44.335Z,6.38
2022-08-30T21:11:12.310Z,6.07
2022-08-30T21:13:39.587Z,6.30
2022-08-30T21:16:07.476Z,5.50
2022-08-30T21:18:36.332Z,5.28
2022-08-30T21:21:15.512Z,5.95
2022-08-30T21:23:42.810Z,5.87
2022-08-30T21:26:10.524Z,5.22
2022-08-30T21:28:38.882Z,5.45
2022-08-30T21:31:08.367Z,5.50
2022-08-30T21:33:36.536Z,5.07
2022-08-30T21:36:27.091Z,5.45
2022-08-30T21:38:54.563Z,5.13
2022-08-30T21:41:28.911Z,4.47
2022-08-30T21:44:01.825Z,4.82
2022-08-30T21:46:30.379Z,4.60
2022-08-30T21:49:01.262Z,4.57
2022-08-30T21:51:29.526Z,4.80
2022-08-30T21:53:57.634Z,4.47
2022-08-30T21:56:25.181Z,4.68
2022-08-30T21:58:52.451Z,4.30
2022-08-30T22:01:23.556Z,4.45
2022-08-30T22:03:52.430Z,4.10
2022-08-30T22:06:19.759Z,4.45
2022-08-30T22:08:49.902Z,4.32
2022-08-30T22:11:21.553Z,4.40
2022-08-30T22:13:50.588Z,4.35
2022-08-30T22:16:20.779Z,4.47
2022-08-30T22:18:48.792Z,4.38
2022-08-30T22:21:19.554Z,4.47
2022-08-30T22:23:46.872Z,4.13
2022-08-30T22:26:15.996Z,4.35
2022-08-30T22:28:43.325Z,4.18
2022-08-30T22:31:12.546Z,3.80
2022-08-30T22:33:40.720Z,4.32
2022-08-30T22:36:17.419Z,4.25
2022-08-30T22:38:44.933Z,4.22
2022-08-30T22:41:16.605Z,4.07
2022-08-30T22:43:45.004Z,4.32
2022-08-30T22:46:12.578Z,4.15
2022-08-30T22:48:42.051Z,4.03
2022-08-30T22:51:10.139Z,4.28
2022-08-30T22:53:37.951Z,4.72
2022-08-30T22:56:20.080Z,3.90
2022-08-30T22:58:48.112Z,3.92
2022-08-30T23:01:29.648Z,3.88
2022-08-30T23:03:58.042Z,3.97
2022-08-30T23:06:25.370Z,4.00
2022-08-30T23:08:52.998Z,4.10
2022-08-30T23:11:20.680Z,4.00
2022-08-30T23:13:48.356Z,3.80
2022-08-30T23:16:16.519Z,4.20
2022-08-30T23:18:45.339Z,3.97
2022-08-30T23:21:19.229Z,3.90
2022-08-30T23:24:05.157Z,3.92
2022-08-30T23:26:51.240Z,3.63
2022-08-30T23:29:37.239Z,3.60
2022-08-30T23:32:23.661Z,3.47
2022-08-30T23:35:09.472Z,3.60
2022-08-30T23:37:55.419Z,3.38
2022-08-30T23:40:42.128Z,3.03
2022-08-30T23:43:28.962Z,3.30
2022-08-30T23:46:18.801Z,3.55
2022-08-30T23:49:08.747Z,2.80
2022-08-30T23:51:56.312Z,2.85
2022-08-30T23:54:42.636Z,3.33
2022-08-30T23:57:28.527Z,2.60
